ilmateenistus.ee keskkonnaagentuur.ee
EETN Таллинн
FTEO31 EETN 152300
TAF EETN 152330Z 1600/1624 13008KT CAVOK=

METAR EETN 160020Z 11006KT CAVOK 19/17 Q1017=
Таллинн
EEKA Кярдла
METAR EEKA 160020Z NIL=
Кярдла
EEKE Курессааре
METAR EEKE 160020Z AUTO 14011KT 9999NDV NSC 23/19 Q1014=
Курессааре
EEPU Пярну
METAR EEPU 160020Z AUTO 10005KT 9999 NCD 20/17 Q1016=
Пярну
EETU Тарту
METAR EETU 160020Z AUTO 11003KT 4100 BR NCD 19/17 Q1017=
Тарту
EEEI Эмари
METAR EEEI 152353Z 12006KT CAVOK 21/18 Q1016=
Эмари